createdAt,value
2019-02-16T00:04:32.232Z,17.64
2019-02-16T00:09:40.019Z,17.43
2019-02-16T00:14:47.714Z,17.23
2019-02-16T00:19:55.395Z,17.14
2019-02-16T00:25:03.076Z,17.69
2019-02-16T00:30:10.716Z,17.29
2019-02-16T00:35:18.423Z,16.79
2019-02-16T00:40:34.954Z,16.54
2019-02-16T00:45:32.664Z,17.04
2019-02-16T00:50:40.319Z,20.04
2019-02-16T00:55:48.351Z,17.49
2019-02-16T01:00:55.988Z,16.81
2019-02-16T01:06:03.634Z,17.00
2019-02-16T01:11:11.260Z,17.36
2019-02-16T01:16:18.943Z,17.41
2019-02-16T01:21:26.589Z,17.05
2019-02-16T01:26:34.244Z,17.07
2019-02-16T01:31:41.936Z,16.59
2019-02-16T01:36:49.802Z,17.23
2019-02-16T01:41:57.498Z,17.65
2019-02-16T01:47:05.214Z,17.22
2019-02-16T01:52:12.861Z,17.43
2019-02-16T01:57:20.615Z,21.09
2019-02-16T02:02:28.336Z,17.27
2019-02-16T02:07:36.129Z,17.49
2019-02-16T02:12:43.855Z,16.97
2019-02-16T02:17:51.750Z,17.18
2019-02-16T02:22:59.415Z,20.01
2019-02-16T02:28:07.283Z,17.47
2019-02-16T02:33:14.952Z,19.20
2019-02-16T02:38:22.717Z,16.27
2019-02-16T02:43:30.456Z,18.62
2019-02-16T02:48:38.148Z,16.12
2019-02-16T02:53:45.824Z,18.29
2019-02-16T02:58:53.527Z,15.99
2019-02-16T03:04:01.215Z,15.49
2019-02-16T03:09:08.939Z,15.15
2019-02-16T03:14:16.704Z,14.73
2019-02-16T03:19:24.390Z,15.34
2019-02-16T03:24:32.108Z,15.28
2019-02-16T03:29:43.715Z,15.23
2019-02-16T03:34:41.460Z,15.21
2019-02-16T03:39:49.138Z,15.06
2019-02-16T03:44:56.896Z,15.19
2019-02-16T03:50:04.603Z,14.76
2019-02-16T03:55:12.327Z,16.63
2019-02-16T04:00:20.194Z,15.00
2019-02-16T04:05:27.877Z,17.09
2019-02-16T04:10:35.755Z,15.01
2019-02-16T04:15:43.455Z,16.15
2019-02-16T04:20:51.126Z,14.56
2019-02-16T04:26:00.285Z,14.36
2019-02-16T04:31:06.222Z,13.99
2019-02-16T04:36:13.896Z,15.89
2019-02-16T04:41:21.625Z,14.83
2019-02-16T04:46:29.248Z,13.87
2019-02-16T04:51:36.955Z,16.39
2019-02-16T04:56:44.597Z,14.47
2019-02-16T05:01:52.293Z,13.52
2019-02-16T05:06:59.924Z,15.91
2019-02-16T05:12:07.579Z,16.46
2019-02-16T05:17:15.185Z,14.08
2019-02-16T05:22:23.017Z,14.60
2019-02-16T05:27:30.707Z,17.51
2019-02-16T05:32:38.349Z,17.70
2019-02-16T05:37:46.016Z,14.59
2019-02-16T05:42:55.737Z,17.61
2019-02-16T05:48:03.398Z,14.93
2019-02-16T05:53:11.020Z,18.76
2019-02-16T05:58:18.840Z,15.48
2019-02-16T06:03:26.507Z,17.47
2019-02-16T06:08:34.200Z,17.94
2019-02-16T06:13:41.809Z,15.68
2019-02-16T06:18:49.501Z,15.62
2019-02-16T06:23:57.164Z,15.21
2019-02-16T06:29:04.817Z,15.53
2019-02-16T06:34:12.560Z,15.77
2019-02-16T06:39:24.317Z,16.11
2019-02-16T06:44:22.001Z,16.29
2019-02-16T06:49:32.845Z,16.52
2019-02-16T06:54:30.532Z,17.45
2019-02-16T06:59:38.178Z,21.64
2019-02-16T07:04:45.836Z,17.36
2019-02-16T07:09:53.491Z,17.51
2019-02-16T07:15:01.221Z,18.09
2019-02-16T07:20:08.841Z,18.52
2019-02-16T07:25:16.467Z,18.28
2019-02-16T07:30:24.195Z,22.61
2019-02-16T07:35:31.849Z,20.96
2019-02-16T07:40:39.491Z,18.19
2019-02-16T07:45:47.160Z,17.98
2019-02-16T07:50:54.824Z,18.26
2019-02-16T07:56:02.473Z,20.31
2019-02-16T08:01:10.152Z,21.91
2019-02-16T08:06:17.790Z,19.62
2019-02-16T08:11:25.484Z,24.95
2019-02-16T08:16:33.125Z,22.56
2019-02-16T08:21:40.793Z,21.86
2019-02-16T08:26:48.449Z,23.00
2019-02-16T08:31:56.164Z,26.09
2019-02-16T08:37:03.824Z,22.91
2019-02-16T08:42:11.461Z,20.71
2019-02-16T08:47:19.136Z,20.47
2019-02-16T08:52:26.781Z,20.86
2019-02-16T08:57:34.505Z,21.01
2019-02-16T09:02:42.130Z,20.52
2019-02-16T09:07:49.803Z,20.53
2019-02-16T09:12:57.444Z,19.72
2019-02-16T09:18:05.426Z,21.32
2019-02-16T09:23:13.015Z,21.03
2019-02-16T09:28:20.668Z,23.07
2019-02-16T09:33:28.292Z,20.92
2019-02-16T09:38:36.214Z,20.52
2019-02-16T09:43:43.823Z,19.54
2019-02-16T09:48:51.468Z,20.08
2019-02-16T09:54:07.969Z,19.61
2019-02-16T09:59:06.372Z,19.48
2019-02-16T10:04:14.066Z,20.00
2019-02-16T10:09:21.733Z,19.53
2019-02-16T10:14:29.363Z,22.38
2019-02-16T10:19:37.588Z,23.29
2019-02-16T10:24:45.271Z,22.77
2019-02-16T10:29:52.936Z,20.14
2019-02-16T10:35:00.551Z,18.42
2019-02-16T10:40:08.197Z,19.02
2019-02-16T10:45:16.648Z,18.93
2019-02-16T10:50:24.288Z,19.08
2019-02-16T10:55:31.934Z,21.74
2019-02-16T11:00:39.605Z,19.37
2019-02-16T11:05:47.240Z,21.34
2019-02-16T11:10:54.965Z,19.33
2019-02-16T11:16:02.605Z,19.13
2019-02-16T11:21:10.300Z,17.85
2019-02-16T11:26:18.100Z,19.07
2019-02-16T11:31:25.753Z,19.11
2019-02-16T11:36:33.395Z,18.46
2019-02-16T11:41:41.055Z,18.41
2019-02-16T11:46:48.705Z,17.43
2019-02-16T11:51:56.618Z,19.03
2019-02-16T11:57:04.245Z,17.41
2019-02-16T12:02:11.866Z,17.34
2019-02-16T12:07:19.504Z,17.23
2019-02-16T12:12:27.364Z,16.84
2019-02-16T12:17:35.002Z,17.23
2019-02-16T12:22:42.720Z,17.36
2019-02-16T12:27:50.384Z,17.97
2019-02-16T12:32:58.069Z,19.23
2019-02-16T12:38:05.708Z,17.80
2019-02-16T12:43:13.347Z,18.96
2019-02-16T12:48:29.945Z,17.71
2019-02-16T12:53:27.526Z,16.19
2019-02-16T12:58:35.268Z,18.48
2019-02-16T13:03:43.060Z,17.33
2019-02-16T13:08:50.728Z,15.63
2019-02-16T13:14:10.775Z,16.59
2019-02-16T13:19:07.670Z,14.29
2019-02-16T13:24:15.342Z,16.71
2019-02-16T13:29:23.136Z,16.91
2019-02-16T13:34:30.993Z,16.73
2019-02-16T13:39:38.680Z,19.20
2019-02-16T13:45:00.450Z,20.11
2019-02-16T13:49:47.140Z,14.96
2019-02-16T13:55:02.594Z,17.45
2019-02-16T14:00:00.295Z,14.34
2019-02-16T14:05:08.000Z,15.34
2019-02-16T14:10:19.717Z,17.94
2019-02-16T14:15:29.542Z,18.03
2019-02-16T14:20:24.909Z,17.52
2019-02-16T14:25:32.580Z,17.37
2019-02-16T14:30:50.849Z,18.74
2019-02-16T14:35:47.866Z,13.85
2019-02-16T14:40:55.509Z,16.79
2019-02-16T14:46:03.143Z,16.85
2019-02-16T14:51:19.246Z,18.40
2019-02-16T14:56:16.038Z,14.02
2019-02-16T15:01:23.688Z,19.05
2019-02-16T15:06:31.398Z,19.99
2019-02-16T15:11:39.037Z,33.67
2019-02-16T15:16:46.724Z,29.12
2019-02-16T15:21:54.348Z,24.89
2019-02-16T15:27:01.992Z,19.76
2019-02-16T15:32:09.612Z,25.45
2019-02-16T15:37:17.341Z,18.81
2019-02-16T15:42:24.958Z,25.87
2019-02-16T15:47:32.612Z,26.56
2019-02-16T15:52:40.249Z,35.19
2019-02-16T15:57:47.964Z,30.49
2019-02-16T16:02:55.586Z,22.27
2019-02-16T16:08:03.630Z,22.40
2019-02-16T16:13:11.277Z,19.80
2019-02-16T16:18:18.949Z,17.50
2019-02-16T16:23:26.564Z,18.77
2019-02-16T16:28:34.217Z,19.02
2019-02-16T16:33:41.885Z,19.10
2019-02-16T16:38:49.629Z,24.30
2019-02-16T16:43:57.350Z,24.86
2019-02-16T16:49:04.981Z,22.01
2019-02-16T16:54:12.632Z,22.51
2019-02-16T16:59:20.346Z,25.37
2019-02-16T17:04:28.537Z,25.60
2019-02-16T17:09:36.247Z,25.13
2019-02-16T17:14:43.856Z,24.58
2019-02-16T17:19:51.514Z,23.71
2019-02-16T17:24:59.124Z,23.54
2019-02-16T17:30:06.916Z,22.29
2019-02-16T17:35:14.553Z,23.98
2019-02-16T17:40:22.314Z,25.18
2019-02-16T17:45:29.917Z,27.28
2019-02-16T17:50:37.633Z,27.87
2019-02-16T17:55:45.248Z,23.94
2019-02-16T18:00:56.755Z,26.47
2019-02-16T18:05:54.390Z,22.68
2019-02-16T18:11:03.083Z,23.53
2019-02-16T18:16:09.228Z,30.16
2019-02-16T18:21:16.872Z,27.09
2019-02-16T18:26:24.536Z,27.60
2019-02-16T18:31:32.216Z,27.18
2019-02-16T18:36:39.874Z,26.18
2019-02-16T18:41:47.488Z,26.66
2019-02-16T18:46:55.956Z,25.25
2019-02-16T18:52:03.579Z,28.05
2019-02-16T18:57:11.279Z,27.84
2019-02-16T19:02:18.913Z,24.65
2019-02-16T19:07:27.766Z,27.88
2019-02-16T19:12:35.408Z,24.03
2019-02-16T19:17:43.112Z,24.64
2019-02-16T19:22:50.749Z,25.70
2019-02-16T19:27:58.386Z,25.06
2019-02-16T19:33:06.029Z,25.41
2019-02-16T19:38:13.663Z,27.68
2019-02-16T19:43:23.187Z,28.73
2019-02-16T19:48:30.811Z,29.95
2019-02-16T19:53:38.432Z,35.59
2019-02-16T19:58:46.436Z,28.95
2019-02-16T20:03:55.393Z,27.42
2019-02-16T20:09:03.057Z,29.42
2019-02-16T20:14:10.692Z,25.76
2019-02-16T20:19:18.314Z,25.36
2019-02-16T20:24:26.033Z,24.46
2019-02-16T20:29:33.652Z,26.41
2019-02-16T20:34:41.309Z,29.97
2019-02-16T20:39:49.030Z,26.10
2019-02-16T20:44:56.677Z,26.10
2019-02-16T20:50:04.371Z,27.12
2019-02-16T20:55:12.017Z,26.67
2019-02-16T21:00:19.653Z,26.89
2019-02-16T21:05:27.297Z,33.04
2019-02-16T21:10:34.921Z,30.87
2019-02-16T21:15:42.635Z,31.60
2019-02-16T21:20:50.264Z,34.62
2019-02-16T21:25:57.906Z,33.42
2019-02-16T21:31:05.552Z,33.46
2019-02-16T21:36:13.234Z,31.37
2019-02-16T21:41:20.909Z,30.06
2019-02-16T21:46:28.537Z,29.92
2019-02-16T21:51:36.177Z,30.83
2019-02-16T21:56:43.892Z,30.97
2019-02-16T22:01:51.541Z,32.69
2019-02-16T22:06:59.528Z,32.25
2019-02-16T22:12:07.141Z,33.23
2019-02-16T22:17:14.803Z,35.87
2019-02-16T22:22:22.427Z,34.07
2019-02-16T22:27:30.444Z,36.02
2019-02-16T22:32:38.082Z,37.98
2019-02-16T22:37:45.780Z,37.64
2019-02-16T22:42:53.414Z,39.49
2019-02-16T22:48:01.105Z,36.42
2019-02-16T22:53:08.712Z,38.54
2019-02-16T22:58:16.409Z,36.86
2019-02-16T23:03:24.073Z,46.30
2019-02-16T23:08:31.744Z,37.63
2019-02-16T23:13:39.388Z,36.58
2019-02-16T23:18:47.082Z,37.23
2019-02-16T23:23:54.784Z,36.12
2019-02-16T23:29:02.433Z,37.81
2019-02-16T23:34:10.677Z,37.99
2019-02-16T23:39:19.088Z,37.03
2019-02-16T23:44:26.752Z,37.15
2019-02-16T23:49:34.420Z,42.52
2019-02-16T23:54:42.137Z,41.40
2019-02-16T23:59:49.765Z,43.56
